sensor_id;sensor_type;location;lat;lon;timestamp;temperature;humidity
64855;DHT22;51321;50.428;8.378;2022-12-16T00:01:48;-7.40;99.90
64855;DHT22;51321;50.428;8.378;2022-12-16T00:04:10;-7.40;99.90
64855;DHT22;51321;50.428;8.378;2022-12-16T00:06:38;-7.50;99.90
64855;DHT22;51321;50.428;8.378;2022-12-16T00:09:01;-7.30;99.90
64855;DHT22;51321;50.428;8.378;2022-12-16T00:11:25;-7.30;99.90
64855;DHT22;51321;50.428;8.378;2022-12-16T00:13:48;-7.40;99.90
64855;DHT22;51321;50.428;8.378;2022-12-16T00:16:11;-7.50;99.90
64855;DHT22;51321;50.428;8.378;2022-12-16T00:18:35;-7.60;99.90
64855;DHT22;51321;50.428;8.378;2022-12-16T00:20:58;-7.60;99.90
64855;DHT22;51321;50.428;8.378;2022-12-16T00:23:22;-7.60;99.90
64855;DHT22;51321;50.428;8.378;2022-12-16T00:25:47;-7.70;99.90
64855;DHT22;51321;50.428;8.378;2022-12-16T00:28:16;-7.70;99.90
64855;DHT22;51321;50.428;8.378;2022-12-16T00:30:47;-7.70;99.90
64855;DHT22;51321;50.428;8.378;2022-12-16T00:33:09;-7.70;99.90
64855;DHT22;51321;50.428;8.378;2022-12-16T00:35:32;-7.80;99.90
64855;DHT22;51321;50.428;8.378;2022-12-16T00:37:55;-7.70;99.90
64855;DHT22;51321;50.428;8.378;2022-12-16T00:40:19;-7.90;99.90
64855;DHT22;51321;50.428;8.378;2022-12-16T00:42:57;-7.80;99.90
64855;DHT22;51321;50.428;8.378;2022-12-16T00:45:24;-7.90;99.90
64855;DHT22;51321;50.428;8.378;2022-12-16T00:47:50;-7.90;99.90
64855;DHT22;51321;50.428;8.378;2022-12-16T00:50:12;-7.80;99.90
64855;DHT22;51321;50.428;8.378;2022-12-16T00:52:36;-7.60;99.90
64855;DHT22;51321;50.428;8.378;2022-12-16T00:54:58;-7.70;99.90
64855;DHT22;51321;50.428;8.378;2022-12-16T00:57:22;-7.80;99.90
64855;DHT22;51321;50.428;8.378;2022-12-16T00:59:45;-7.80;99.90
64855;DHT22;51321;50.428;8.378;2022-12-16T01:02:10;-7.70;99.90
64855;DHT22;51321;50.428;8.378;2022-12-16T01:04:33;-7.70;99.90
64855;DHT22;51321;50.428;8.378;2022-12-16T01:06:55;-7.80;99.90
64855;DHT22;51321;50.428;8.378;2022-12-16T01:09:17;-8.00;99.90
64855;DHT22;51321;50.428;8.378;2022-12-16T01:11:40;-8.00;99.90
64855;DHT22;51321;50.428;8.378;2022-12-16T01:14:04;-8.10;99.90
64855;DHT22;51321;50.428;8.378;2022-12-16T01:16:26;-8.10;99.90
64855;DHT22;51321;50.428;8.378;2022-12-16T01:18:50;-8.00;99.90
64855;DHT22;51321;50.428;8.378;2022-12-16T01:21:14;-8.10;99.90
64855;DHT22;51321;50.428;8.378;2022-12-16T01:23:38;-8.20;99.90
64855;DHT22;51321;50.428;8.378;2022-12-16T01:26:01;-8.20;99.90
64855;DHT22;51321;50.428;8.378;2022-12-16T01:28:23;-8.10;99.90
64855;DHT22;51321;50.428;8.378;2022-12-16T01:30:46;-8.00;99.90
64855;DHT22;51321;50.428;8.378;2022-12-16T01:33:08;-8.10;99.90
64855;DHT22;51321;50.428;8.378;2022-12-16T01:35:33;-8.10;99.90
64855;DHT22;51321;50.428;8.378;2022-12-16T01:37:56;-8.10;99.90
64855;DHT22;51321;50.428;8.378;2022-12-16T01:40:21;-8.20;99.90
64855;DHT22;51321;50.428;8.378;2022-12-16T01:42:45;-8.30;99.90
64855;DHT22;51321;50.428;8.378;2022-12-16T01:45:28;-8.20;99.90
64855;DHT22;51321;50.428;8.378;2022-12-16T01:47:51;-8.20;99.90
64855;DHT22;51321;50.428;8.378;2022-12-16T01:50:26;-8.00;99.90
64855;DHT22;51321;50.428;8.378;2022-12-16T01:52:56;-8.00;99.90
64855;DHT22;51321;50.428;8.378;2022-12-16T01:55:22;-8.20;99.90
64855;DHT22;51321;50.428;8.378;2022-12-16T01:57:54;-8.20;99.90
64855;DHT22;51321;50.428;8.378;2022-12-16T02:00:21;-8.20;99.90
64855;DHT22;51321;50.428;8.378;2022-12-16T02:02:47;-8.30;99.90
64855;DHT22;51321;50.428;8.378;2022-12-16T02:05:11;-8.40;99.90
64855;DHT22;51321;50.428;8.378;2022-12-16T02:07:59;-8.40;99.90
64855;DHT22;51321;50.428;8.378;2022-12-16T02:10:30;-8.50;99.90
64855;DHT22;51321;50.428;8.378;2022-12-16T02:12:58;-8.40;99.90
64855;DHT22;51321;50.428;8.378;2022-12-16T02:15:33;-8.40;99.90
64855;DHT22;51321;50.428;8.378;2022-12-16T02:18:09;-8.10;99.90
64855;DHT22;51321;50.428;8.378;2022-12-16T02:33:09;-8.30;99.90
64855;DHT22;51321;50.428;8.378;2022-12-16T02:35:40;-8.30;99.90
64855;DHT22;51321;50.428;8.378;2022-12-16T02:38:20;-8.10;99.90
64855;DHT22;51321;50.428;8.378;2022-12-16T02:40:50;-8.20;99.90
64855;DHT22;51321;50.428;8.378;2022-12-16T02:43:16;-8.30;99.90
64855;DHT22;51321;50.428;8.378;2022-12-16T02:45:45;-8.40;99.90
64855;DHT22;51321;50.428;8.378;2022-12-16T02:48:10;-8.50;99.90
64855;DHT22;51321;50.428;8.378;2022-12-16T02:50:35;-8.40;99.90
64855;DHT22;51321;50.428;8.378;2022-12-16T02:53:05;-8.30;99.90
64855;DHT22;51321;50.428;8.378;2022-12-16T02:55:39;-8.40;99.90
64855;DHT22;51321;50.428;8.378;2022-12-16T02:58:09;-8.40;99.90
64855;DHT22;51321;50.428;8.378;2022-12-16T03:00:42;-8.20;99.90
64855;DHT22;51321;50.428;8.378;2022-12-16T03:03:12;-8.40;99.90
64855;DHT22;51321;50.428;8.378;2022-12-16T03:05:42;-8.60;99.90
64855;DHT22;51321;50.428;8.378;2022-12-16T03:08:11;-8.60;99.90
64855;DHT22;51321;50.428;8.378;2022-12-16T03:10:38;-8.70;99.90
64855;DHT22;51321;50.428;8.378;2022-12-16T03:13:04;-8.80;99.90
64855;DHT22;51321;50.428;8.378;2022-12-16T03:15:29;-8.80;99.90
64855;DHT22;51321;50.428;8.378;2022-12-16T03:17:54;-8.80;99.90
64855;DHT22;51321;50.428;8.378;2022-12-16T03:20:44;-8.80;99.90
64855;DHT22;51321;50.428;8.378;2022-12-16T03:23:22;-8.80;99.90
64855;DHT22;51321;50.428;8.378;2022-12-16T03:25:50;-8.70;99.90
64855;DHT22;51321;50.428;8.378;2022-12-16T03:28:54;-8.50;99.90
64855;DHT22;51321;50.428;8.378;2022-12-16T03:31:40;-8.70;99.90
64855;DHT22;51321;50.428;8.378;2022-12-16T03:34:28;-8.90;99.90
64855;DHT22;51321;50.428;8.378;2022-12-16T03:44:31;-9.00;99.90
64855;DHT22;51321;50.428;8.378;2022-12-16T03:47:57;-9.00;99.90
64855;DHT22;51321;50.428;8.378;2022-12-16T03:50:27;-8.80;99.90
64855;DHT22;51321;50.428;8.378;2022-12-16T03:52:56;-8.90;99.90
64855;DHT22;51321;50.428;8.378;2022-12-16T03:55:19;-8.90;99.90
64855;DHT22;51321;50.428;8.378;2022-12-16T03:57:41;-9.00;99.90
64855;DHT22;51321;50.428;8.378;2022-12-16T04:00:11;-9.00;99.90
64855;DHT22;51321;50.428;8.378;2022-12-16T04:02:54;-9.00;99.90
64855;DHT22;51321;50.428;8.378;2022-12-16T04:05:22;-8.90;99.90
64855;DHT22;51321;50.428;8.378;2022-12-16T04:07:44;-8.90;99.90
64855;DHT22;51321;50.428;8.378;2022-12-16T04:10:06;-8.90;99.90
64855;DHT22;51321;50.428;8.378;2022-12-16T04:12:31;-9.00;99.90
64855;DHT22;51321;50.428;8.378;2022-12-16T04:15:13;-9.00;99.90
64855;DHT22;51321;50.428;8.378;2022-12-16T04:17:59;-8.90;99.90
64855;DHT22;51321;50.428;8.378;2022-12-16T04:20:54;-9.00;99.90
64855;DHT22;51321;50.428;8.378;2022-12-16T04:23:54;-8.90;99.90
64855;DHT22;51321;50.428;8.378;2022-12-16T04:26:46;-8.90;99.90
64855;DHT22;51321;50.428;8.378;2022-12-16T04:29:34;-9.00;99.90
64855;DHT22;51321;50.428;8.378;2022-12-16T04:32:58;-9.10;99.90
64855;DHT22;51321;50.428;8.378;2022-12-16T04:36:24;-9.20;99.90
64855;DHT22;51321;50.428;8.378;2022-12-16T04:42:51;-9.20;99.90
64855;DHT22;51321;50.428;8.378;2022-12-16T04:46:16;-9.20;99.90
64855;DHT22;51321;50.428;8.378;2022-12-16T04:49:34;-9.20;99.90
64855;DHT22;51321;50.428;8.378;2022-12-16T04:52:22;-9.10;99.90
64855;DHT22;51321;50.428;8.378;2022-12-16T04:55:07;-9.20;99.90
64855;DHT22;51321;50.428;8.378;2022-12-16T04:57:58;-9.20;99.90
64855;DHT22;51321;50.428;8.378;2022-12-16T05:00:46;-9.20;99.90
64855;DHT22;51321;50.428;8.378;2022-12-16T05:03:41;-9.30;99.90
64855;DHT22;51321;50.428;8.378;2022-12-16T05:06:23;-9.30;99.90
64855;DHT22;51321;50.428;8.378;2022-12-16T05:09:06;-9.30;99.90
64855;DHT22;51321;50.428;8.378;2022-12-16T05:11:48;-9.50;99.90
64855;DHT22;51321;50.428;8.378;2022-12-16T05:14:31;-9.50;99.90
64855;DHT22;51321;50.428;8.378;2022-12-16T05:17:15;-9.40;99.90
64855;DHT22;51321;50.428;8.378;2022-12-16T05:23:53;-9.40;99.90
64855;DHT22;51321;50.428;8.378;2022-12-16T05:26:46;-9.40;99.90
64855;DHT22;51321;50.428;8.378;2022-12-16T05:29:32;-9.40;99.90
64855;DHT22;51321;50.428;8.378;2022-12-16T05:32:12;-9.50;99.90
64855;DHT22;51321;50.428;8.378;2022-12-16T05:34:52;-9.30;99.90
64855;DHT22;51321;50.428;8.378;2022-12-16T05:37:32;-9.30;99.90
64855;DHT22;51321;50.428;8.378;2022-12-16T05:40:16;-9.30;99.90
64855;DHT22;51321;50.428;8.378;2022-12-16T05:42:56;-9.30;99.90
64855;DHT22;51321;50.428;8.378;2022-12-16T05:45:36;-9.30;99.90
64855;DHT22;51321;50.428;8.378;2022-12-16T05:48:16;-9.40;99.90
64855;DHT22;51321;50.428;8.378;2022-12-16T05:50:56;-9.40;99.90
64855;DHT22;51321;50.428;8.378;2022-12-16T05:53:36;-9.30;99.90
64855;DHT22;51321;50.428;8.378;2022-12-16T05:56:18;-9.20;99.90
64855;DHT22;51321;50.428;8.378;2022-12-16T05:58:59;-9.20;99.90
64855;DHT22;51321;50.428;8.378;2022-12-16T06:01:39;-9.30;99.90
64855;DHT22;51321;50.428;8.378;2022-12-16T06:04:19;-9.30;99.90
64855;DHT22;51321;50.428;8.378;2022-12-16T06:07:10;-9.40;99.90
64855;DHT22;51321;50.428;8.378;2022-12-16T06:09:51;-9.50;99.90
64855;DHT22;51321;50.428;8.378;2022-12-16T06:12:32;-9.50;99.90
64855;DHT22;51321;50.428;8.378;2022-12-16T06:15:12;-9.40;99.90
64855;DHT22;51321;50.428;8.378;2022-12-16T06:17:53;-9.50;99.90
64855;DHT22;51321;50.428;8.378;2022-12-16T06:20:33;-9.50;99.90
64855;DHT22;51321;50.428;8.378;2022-12-16T06:23:13;-9.50;99.90
64855;DHT22;51321;50.428;8.378;2022-12-16T06:25:54;-9.50;99.90
64855;DHT22;51321;50.428;8.378;2022-12-16T06:28:35;-9.50;99.90
64855;DHT22;51321;50.428;8.378;2022-12-16T06:31:15;-9.50;99.90
64855;DHT22;51321;50.428;8.378;2022-12-16T06:33:56;-9.60;99.90
64855;DHT22;51321;50.428;8.378;2022-12-16T06:36:35;-9.50;99.90
64855;DHT22;51321;50.428;8.378;2022-12-16T06:39:15;-9.40;99.90
64855;DHT22;51321;50.428;8.378;2022-12-16T06:41:57;-9.50;99.90
64855;DHT22;51321;50.428;8.378;2022-12-16T06:44:38;-9.60;99.90
64855;DHT22;51321;50.428;8.378;2022-12-16T06:47:19;-9.50;99.90
64855;DHT22;51321;50.428;8.378;2022-12-16T06:49:58;-9.50;99.90
64855;DHT22;51321;50.428;8.378;2022-12-16T06:52:40;-9.50;99.90
64855;DHT22;51321;50.428;8.378;2022-12-16T06:55:21;-9.60;99.90
64855;DHT22;51321;50.428;8.378;2022-12-16T06:58:16;-9.60;99.90
64855;DHT22;51321;50.428;8.378;2022-12-16T07:00:57;-9.60;99.90
64855;DHT22;51321;50.428;8.378;2022-12-16T07:03:37;-9.70;99.90
64855;DHT22;51321;50.428;8.378;2022-12-16T07:06:42;-9.60;99.90
64855;DHT22;51321;50.428;8.378;2022-12-16T07:09:23;-9.60;99.90
64855;DHT22;51321;50.428;8.378;2022-12-16T07:12:03;-9.70;99.90
64855;DHT22;51321;50.428;8.378;2022-12-16T07:14:39;-9.60;99.90
64855;DHT22;51321;50.428;8.378;2022-12-16T07:17:20;-9.60;99.90
64855;DHT22;51321;50.428;8.378;2022-12-16T07:20:15;-9.70;99.90
64855;DHT22;51321;50.428;8.378;2022-12-16T07:22:55;-9.70;99.90
64855;DHT22;51321;50.428;8.378;2022-12-16T07:25:35;-9.70;99.90
64855;DHT22;51321;50.428;8.378;2022-12-16T07:28:16;-9.70;99.90
64855;DHT22;51321;50.428;8.378;2022-12-16T07:30:56;-9.50;99.90
64855;DHT22;51321;50.428;8.378;2022-12-16T07:33:38;-9.50;99.90
64855;DHT22;51321;50.428;8.378;2022-12-16T07:36:18;-9.50;99.90
64855;DHT22;51321;50.428;8.378;2022-12-16T07:38:58;-9.60;99.90
64855;DHT22;51321;50.428;8.378;2022-12-16T07:41:39;-9.50;99.90
64855;DHT22;51321;50.428;8.378;2022-12-16T07:44:18;-9.80;99.90
64855;DHT22;51321;50.428;8.378;2022-12-16T07:46:58;-9.60;99.90
64855;DHT22;51321;50.428;8.378;2022-12-16T07:49:42;-9.70;99.90
64855;DHT22;51321;50.428;8.378;2022-12-16T07:52:21;-9.60;99.90
64855;DHT22;51321;50.428;8.378;2022-12-16T07:55:00;-9.60;99.90
64855;DHT22;51321;50.428;8.378;2022-12-16T07:57:41;-9.60;99.90
64855;DHT22;51321;50.428;8.378;2022-12-16T08:00:27;-9.70;99.90
64855;DHT22;51321;50.428;8.378;2022-12-16T08:03:07;-9.60;99.90
64855;DHT22;51321;50.428;8.378;2022-12-16T08:05:49;-9.40;99.90
64855;DHT22;51321;50.428;8.378;2022-12-16T08:08:30;-9.20;99.90
64855;DHT22;51321;50.428;8.378;2022-12-16T08:11:09;-9.20;99.90
64855;DHT22;51321;50.428;8.378;2022-12-16T08:13:49;-9.00;99.90
64855;DHT22;51321;50.428;8.378;2022-12-16T08:16:29;-9.00;99.90
64855;DHT22;51321;50.428;8.378;2022-12-16T08:19:09;-9.00;99.90
64855;DHT22;51321;50.428;8.378;2022-12-16T08:21:50;-8.80;99.90
64855;DHT22;51321;50.428;8.378;2022-12-16T08:24:44;-8.80;99.90
64855;DHT22;51321;50.428;8.378;2022-12-16T08:27:25;-8.90;99.90
64855;DHT22;51321;50.428;8.378;2022-12-16T08:30:06;-8.70;99.90
64855;DHT22;51321;50.428;8.378;2022-12-16T08:32:46;-8.60;99.90
64855;DHT22;51321;50.428;8.378;2022-12-16T08:35:26;-8.50;99.90
64855;DHT22;51321;50.428;8.378;2022-12-16T08:38:07;-8.40;99.90
64855;DHT22;51321;50.428;8.378;2022-12-16T08:40:48;-8.30;99.90
64855;DHT22;51321;50.428;8.378;2022-12-16T08:43:29;-8.20;99.90
64855;DHT22;51321;50.428;8.378;2022-12-16T08:46:10;-8.10;99.90
64855;DHT22;51321;50.428;8.378;2022-12-16T08:48:50;-8.00;99.90
64855;DHT22;51321;50.428;8.378;2022-12-16T08:51:31;-7.80;99.90
64855;DHT22;51321;50.428;8.378;2022-12-16T08:54:12;-7.80;99.90
64855;DHT22;51321;50.428;8.378;2022-12-16T08:56:53;-7.70;99.90
64855;DHT22;51321;50.428;8.378;2022-12-16T08:59:32;-7.60;99.90
64855;DHT22;51321;50.428;8.378;2022-12-16T09:02:13;-7.40;99.90
64855;DHT22;51321;50.428;8.378;2022-12-16T09:04:53;-7.30;99.90
64855;DHT22;51321;50.428;8.378;2022-12-16T09:07:34;-7.10;99.90
64855;DHT22;51321;50.428;8.378;2022-12-16T09:10:16;-7.00;99.90
64855;DHT22;51321;50.428;8.378;2022-12-16T09:13:04;-7.00;99.90
64855;DHT22;51321;50.428;8.378;2022-12-16T09:15:44;-7.00;99.90
64855;DHT22;51321;50.428;8.378;2022-12-16T09:18:24;-6.90;99.90
64855;DHT22;51321;50.428;8.378;2022-12-16T09:21:04;-6.80;99.90
64855;DHT22;51321;50.428;8.378;2022-12-16T09:23:43;-6.60;99.90
64855;DHT22;51321;50.428;8.378;2022-12-16T09:26:25;-6.60;99.90
64855;DHT22;51321;50.428;8.378;2022-12-16T09:29:04;-6.60;99.90
64855;DHT22;51321;50.428;8.378;2022-12-16T09:31:45;-6.70;99.90
64855;DHT22;51321;50.428;8.378;2022-12-16T09:34:26;-6.80;99.90
64855;DHT22;51321;50.428;8.378;2022-12-16T09:37:06;-6.60;99.90
64855;DHT22;51321;50.428;8.378;2022-12-16T09:39:45;-6.50;99.90
64855;DHT22;51321;50.428;8.378;2022-12-16T09:42:33;-6.50;99.90
64855;DHT22;51321;50.428;8.378;2022-12-16T09:45:25;-6.60;99.90
64855;DHT22;51321;50.428;8.378;2022-12-16T09:48:16;-6.70;99.90
64855;DHT22;51321;50.428;8.378;2022-12-16T09:51:04;-6.40;99.90
64855;DHT22;51321;50.428;8.378;2022-12-16T09:53:47;-6.40;99.90
64855;DHT22;51321;50.428;8.378;2022-12-16T09:56:30;-6.40;99.90
64855;DHT22;51321;50.428;8.378;2022-12-16T09:59:14;-6.40;99.90
64855;DHT22;51321;50.428;8.378;2022-12-16T10:01:55;-6.40;99.90
64855;DHT22;51321;50.428;8.378;2022-12-16T10:04:35;-6.10;99.90
64855;DHT22;51321;50.428;8.378;2022-12-16T10:07:18;-6.20;99.90
64855;DHT22;51321;50.428;8.378;2022-12-16T10:10:04;-6.10;99.90
64855;DHT22;51321;50.428;8.378;2022-12-16T10:12:50;-5.90;99.90
64855;DHT22;51321;50.428;8.378;2022-12-16T10:15:39;-5.90;99.90
64855;DHT22;51321;50.428;8.378;2022-12-16T10:18:36;-5.80;99.90
64855;DHT22;51321;50.428;8.378;2022-12-16T10:21:22;-5.70;99.90
64855;DHT22;51321;50.428;8.378;2022-12-16T10:24:08;-5.70;99.90
64855;DHT22;51321;50.428;8.378;2022-12-16T10:26:56;-5.60;99.90
64855;DHT22;51321;50.428;8.378;2022-12-16T10:29:42;-5.60;99.90
64855;DHT22;51321;50.428;8.378;2022-12-16T10:32:28;-5.50;99.90
64855;DHT22;51321;50.428;8.378;2022-12-16T10:35:18;-5.30;99.90
64855;DHT22;51321;50.428;8.378;2022-12-16T10:37:59;-5.20;99.90
64855;DHT22;51321;50.428;8.378;2022-12-16T10:40:39;-5.10;99.90
64855;DHT22;51321;50.428;8.378;2022-12-16T10:43:21;-5.00;99.90
64855;DHT22;51321;50.428;8.378;2022-12-16T10:46:20;-4.90;99.90
64855;DHT22;51321;50.428;8.378;2022-12-16T10:49:03;-4.80;99.90
64855;DHT22;51321;50.428;8.378;2022-12-16T10:51:45;-4.80;99.90
64855;DHT22;51321;50.428;8.378;2022-12-16T10:54:31;-4.70;99.90
64855;DHT22;51321;50.428;8.378;2022-12-16T10:57:17;-4.60;99.90
64855;DHT22;51321;50.428;8.378;2022-12-16T11:00:09;-4.60;99.90
64855;DHT22;51321;50.428;8.378;2022-12-16T11:02:50;-4.50;99.90
64855;DHT22;51321;50.428;8.378;2022-12-16T11:05:34;-4.40;99.90
64855;DHT22;51321;50.428;8.378;2022-12-16T11:08:23;-4.30;99.90
64855;DHT22;51321;50.428;8.378;2022-12-16T11:11:12;-4.20;99.90
64855;DHT22;51321;50.428;8.378;2022-12-16T11:14:13;-4.00;99.90
64855;DHT22;51321;50.428;8.378;2022-12-16T11:17:17;-3.90;99.90
64855;DHT22;51321;50.428;8.378;2022-12-16T11:20:16;-3.60;99.90
64855;DHT22;51321;50.428;8.378;2022-12-16T11:23:24;-3.60;99.90
64855;DHT22;51321;50.428;8.378;2022-12-16T11:26:12;-3.20;99.90
64855;DHT22;51321;50.428;8.378;2022-12-16T11:29:03;-2.90;99.90
64855;DHT22;51321;50.428;8.378;2022-12-16T11:31:43;-2.60;99.90
64855;DHT22;51321;50.428;8.378;2022-12-16T11:34:31;-2.30;99.90
64855;DHT22;51321;50.428;8.378;2022-12-16T11:37:16;-2.00;99.90
64855;DHT22;51321;50.428;8.378;2022-12-16T11:39:59;-2.00;99.90
64855;DHT22;51321;50.428;8.378;2022-12-16T11:42:40;-1.90;99.90
64855;DHT22;51321;50.428;8.378;2022-12-16T11:45:20;-2.00;99.90
64855;DHT22;51321;50.428;8.378;2022-12-16T11:48:06;-1.90;99.90
64855;DHT22;51321;50.428;8.378;2022-12-16T11:50:52;-1.80;99.90
64855;DHT22;51321;50.428;8.378;2022-12-16T11:53:40;-1.90;99.90
64855;DHT22;51321;50.428;8.378;2022-12-16T11:56:29;-1.90;99.90
64855;DHT22;51321;50.428;8.378;2022-12-16T11:59:16;-1.90;99.90
64855;DHT22;51321;50.428;8.378;2022-12-16T12:02:00;-1.60;99.90
64855;DHT22;51321;50.428;8.378;2022-12-16T12:04:47;-1.60;99.90
64855;DHT22;51321;50.428;8.378;2022-12-16T12:07:32;-1.60;99.90
64855;DHT22;51321;50.428;8.378;2022-12-16T12:13:35;-1.50;99.90
64855;DHT22;51321;50.428;8.378;2022-12-16T12:16:27;-1.50;99.90
64855;DHT22;51321;50.428;8.378;2022-12-16T12:19:16;-1.50;99.90
64855;DHT22;51321;50.428;8.378;2022-12-16T12:22:01;-1.50;99.90
64855;DHT22;51321;50.428;8.378;2022-12-16T12:24:48;-1.50;99.90
64855;DHT22;51321;50.428;8.378;2022-12-16T12:27:35;-1.50;99.90
64855;DHT22;51321;50.428;8.378;2022-12-16T12:30:23;-1.50;99.90
64855;DHT22;51321;50.428;8.378;2022-12-16T12:33:24;-1.50;99.90
64855;DHT22;51321;50.428;8.378;2022-12-16T12:36:11;-1.40;99.90
64855;DHT22;51321;50.428;8.378;2022-12-16T12:39:02;-1.30;99.90
64855;DHT22;51321;50.428;8.378;2022-12-16T12:42:10;-1.10;99.90
64855;DHT22;51321;50.428;8.378;2022-12-16T12:45:03;-1.10;99.90
64855;DHT22;51321;50.428;8.378;2022-12-16T12:47:55;-1.10;99.90
64855;DHT22;51321;50.428;8.378;2022-12-16T12:50:44;-1.10;99.90
64855;DHT22;51321;50.428;8.378;2022-12-16T12:53:35;-1.10;99.90
64855;DHT22;51321;50.428;8.378;2022-12-16T12:56:26;-1.30;99.90
64855;DHT22;51321;50.428;8.378;2022-12-16T12:59:13;-1.40;99.90
64855;DHT22;51321;50.428;8.378;2022-12-16T13:01:56;-1.50;99.90
64855;DHT22;51321;50.428;8.378;2022-12-16T13:04:39;-1.50;99.90
64855;DHT22;51321;50.428;8.378;2022-12-16T13:07:19;-1.60;99.90
64855;DHT22;51321;50.428;8.378;2022-12-16T13:10:14;-1.60;99.90
64855;DHT22;51321;50.428;8.378;2022-12-16T13:13:28;-1.60;99.90
64855;DHT22;51321;50.428;8.378;2022-12-16T13:16:10;-1.70;99.90
64855;DHT22;51321;50.428;8.378;2022-12-16T13:22:28;-1.60;99.90
64855;DHT22;51321;50.428;8.378;2022-12-16T13:25:30;-1.60;99.90
64855;DHT22;51321;50.428;8.378;2022-12-16T13:28:20;-1.60;99.90
64855;DHT22;51321;50.428;8.378;2022-12-16T13:31:03;-1.60;99.90
64855;DHT22;51321;50.428;8.378;2022-12-16T13:33:49;-1.50;99.90
64855;DHT22;51321;50.428;8.378;2022-12-16T13:36:33;-1.60;99.90
64855;DHT22;51321;50.428;8.378;2022-12-16T13:39:24;-1.70;99.90
64855;DHT22;51321;50.428;8.378;2022-12-16T13:42:25;-1.70;99.90
64855;DHT22;51321;50.428;8.378;2022-12-16T13:45:30;-1.80;99.90
64855;DHT22;51321;50.428;8.378;2022-12-16T13:48:29;-1.70;99.90
64855;DHT22;51321;50.428;8.378;2022-12-16T13:54:26;-2.00;99.90
64855;DHT22;51321;50.428;8.378;2022-12-16T13:57:10;-2.10;99.90
64855;DHT22;51321;50.428;8.378;2022-12-16T13:59:57;-2.20;99.90
64855;DHT22;51321;50.428;8.378;2022-12-16T14:02:40;-2.20;99.90
64855;DHT22;51321;50.428;8.378;2022-12-16T14:05:24;-2.10;99.90
64855;DHT22;51321;50.428;8.378;2022-12-16T14:08:12;-2.10;99.90
64855;DHT22;51321;50.428;8.378;2022-12-16T14:11:01;-2.30;99.90
64855;DHT22;51321;50.428;8.378;2022-12-16T14:13:47;-2.30;99.90
64855;DHT22;51321;50.428;8.378;2022-12-16T14:16:50;-2.30;99.90
64855;DHT22;51321;50.428;8.378;2022-12-16T14:19:37;-2.40;99.90
64855;DHT22;51321;50.428;8.378;2022-12-16T14:22:33;-2.30;99.90
64855;DHT22;51321;50.428;8.378;2022-12-16T14:25:22;-2.40;99.90
64855;DHT22;51321;50.428;8.378;2022-12-16T14:28:13;-2.50;99.90
64855;DHT22;51321;50.428;8.378;2022-12-16T14:31:04;-2.50;99.90
64855;DHT22;51321;50.428;8.378;2022-12-16T14:33:51;-2.50;99.90
64855;DHT22;51321;50.428;8.378;2022-12-16T14:36:37;-2.60;99.90
64855;DHT22;51321;50.428;8.378;2022-12-16T14:39:20;-2.70;99.90
64855;DHT22;51321;50.428;8.378;2022-12-16T14:42:01;-2.70;99.90
64855;DHT22;51321;50.428;8.378;2022-12-16T14:44:46;-2.70;99.90
64855;DHT22;51321;50.428;8.378;2022-12-16T14:47:26;-2.70;99.90
64855;DHT22;51321;50.428;8.378;2022-12-16T14:50:25;-2.80;99.90
64855;DHT22;51321;50.428;8.378;2022-12-16T14:53:13;-2.90;99.90
64855;DHT22;51321;50.428;8.378;2022-12-16T14:56:16;-2.90;99.90
64855;DHT22;51321;50.428;8.378;2022-12-16T14:59:08;-2.90;99.90
64855;DHT22;51321;50.428;8.378;2022-12-16T15:01:52;-2.80;99.90
64855;DHT22;51321;50.428;8.378;2022-12-16T15:04:32;-3.00;99.90
64855;DHT22;51321;50.428;8.378;2022-12-16T15:07:13;-3.00;99.90
64855;DHT22;51321;50.428;8.378;2022-12-16T15:09:53;-3.00;99.90
64855;DHT22;51321;50.428;8.378;2022-12-16T15:12:39;-3.10;99.90
64855;DHT22;51321;50.428;8.378;2022-12-16T15:15:28;-3.30;99.90
64855;DHT22;51321;50.428;8.378;2022-12-16T15:18:16;-3.30;99.90
64855;DHT22;51321;50.428;8.378;2022-12-16T15:20:59;-3.40;99.90
64855;DHT22;51321;50.428;8.378;2022-12-16T15:23:41;-3.40;99.90
64855;DHT22;51321;50.428;8.378;2022-12-16T15:26:23;-3.60;99.90
64855;DHT22;51321;50.428;8.378;2022-12-16T15:32:27;-3.60;99.90
64855;DHT22;51321;50.428;8.378;2022-12-16T15:35:10;-3.60;99.90
64855;DHT22;51321;50.428;8.378;2022-12-16T15:38:10;-3.60;99.90
64855;DHT22;51321;50.428;8.378;2022-12-16T15:40:51;-3.70;99.90
64855;DHT22;51321;50.428;8.378;2022-12-16T15:43:32;-3.70;99.90
64855;DHT22;51321;50.428;8.378;2022-12-16T15:46:19;-3.70;99.90
64855;DHT22;51321;50.428;8.378;2022-12-16T15:49:21;-3.80;99.90
64855;DHT22;51321;50.428;8.378;2022-12-16T15:52:05;-3.90;99.90
64855;DHT22;51321;50.428;8.378;2022-12-16T15:55:00;-4.00;99.90
64855;DHT22;51321;50.428;8.378;2022-12-16T15:57:54;-4.00;99.90
64855;DHT22;51321;50.428;8.378;2022-12-16T16:00:35;-4.10;99.90
64855;DHT22;51321;50.428;8.378;2022-12-16T16:03:21;-4.10;99.90
64855;DHT22;51321;50.428;8.378;2022-12-16T16:06:15;-4.20;99.90
64855;DHT22;51321;50.428;8.378;2022-12-16T16:09:00;-4.40;99.90
64855;DHT22;51321;50.428;8.378;2022-12-16T16:11:42;-4.50;99.90
64855;DHT22;51321;50.428;8.378;2022-12-16T16:14:22;-4.50;99.90
64855;DHT22;51321;50.428;8.378;2022-12-16T16:17:08;-4.40;99.90
64855;DHT22;51321;50.428;8.378;2022-12-16T16:19:52;-4.50;99.90
64855;DHT22;51321;50.428;8.378;2022-12-16T16:22:43;-4.60;99.90
64855;DHT22;51321;50.428;8.378;2022-12-16T16:25:26;-4.70;99.90
64855;DHT22;51321;50.428;8.378;2022-12-16T16:28:07;-4.70;99.90
64855;DHT22;51321;50.428;8.378;2022-12-16T16:30:52;-4.80;99.90
64855;DHT22;51321;50.428;8.378;2022-12-16T16:33:32;-4.90;99.90
64855;DHT22;51321;50.428;8.378;2022-12-16T16:36:15;-4.80;99.90
64855;DHT22;51321;50.428;8.378;2022-12-16T16:39:00;-4.90;99.90
64855;DHT22;51321;50.428;8.378;2022-12-16T16:41:42;-5.00;99.90
64855;DHT22;51321;50.428;8.378;2022-12-16T16:44:23;-5.10;99.90
64855;DHT22;51321;50.428;8.378;2022-12-16T16:47:04;-5.20;99.90
64855;DHT22;51321;50.428;8.378;2022-12-16T16:49:49;-5.20;99.90
64855;DHT22;51321;50.428;8.378;2022-12-16T16:52:30;-5.30;99.90
64855;DHT22;51321;50.428;8.378;2022-12-16T16:55:14;-5.40;99.90
64855;DHT22;51321;50.428;8.378;2022-12-16T16:57:56;-5.40;99.90
64855;DHT22;51321;50.428;8.378;2022-12-16T17:00:36;-5.40;99.90
64855;DHT22;51321;50.428;8.378;2022-12-16T17:03:25;-5.20;99.90
64855;DHT22;51321;50.428;8.378;2022-12-16T17:06:06;-5.40;99.90
64855;DHT22;51321;50.428;8.378;2022-12-16T17:08:47;-5.40;99.90
64855;DHT22;51321;50.428;8.378;2022-12-16T17:11:28;-5.20;99.90
64855;DHT22;51321;50.428;8.378;2022-12-16T17:14:13;-5.30;99.90
64855;DHT22;51321;50.428;8.378;2022-12-16T17:16:52;-5.20;99.90
64855;DHT22;51321;50.428;8.378;2022-12-16T17:19:32;-5.30;99.90
64855;DHT22;51321;50.428;8.378;2022-12-16T17:22:11;-5.40;99.90
64855;DHT22;51321;50.428;8.378;2022-12-16T17:24:51;-5.60;99.90
64855;DHT22;51321;50.428;8.378;2022-12-16T17:27:31;-5.70;99.90
64855;DHT22;51321;50.428;8.378;2022-12-16T17:30:16;-5.70;99.90
64855;DHT22;51321;50.428;8.378;2022-12-16T17:32:57;-5.80;99.90
64855;DHT22;51321;50.428;8.378;2022-12-16T17:35:37;-5.90;99.90
64855;DHT22;51321;50.428;8.378;2022-12-16T17:38:17;-6.00;99.90
64855;DHT22;51321;50.428;8.378;2022-12-16T17:40:57;-6.00;99.90